Time;durP1;ratioP1;P1;durP2;ratioP2;P2;SDS_P1;SDS_P2;PMS_P1;PMS_P2;Temp;Humidity;BMP_temperature;BMP_pressure;BME280_temperature;BME280_humidity;BME280_pressure;Samples;Min_cycle;Max_cycle;Signal;HPM_P1;HPM_P2
2024/01/08 00:00:03;;;;;;;56.22;31.65;;;;;;;;;;5018277;28;20022;-72
2024/01/08 00:02:29;;;;;;;52.13;31.40;;;;;;;;;;5019639;28;20022;-71
2024/01/08 00:04:55;;;;;;;52.97;33.97;;;;;;;;;;5012081;28;20033;-71
2024/01/08 00:07:22;;;;;;;47.45;33.85;;;;;;;;;;5020392;28;20025;-71
2024/01/08 00:09:48;;;;;;;47.22;32.35;;;;;;;;;;5014332;28;20098;-71
2024/01/08 00:12:14;;;;;;;57.92;33.55;;;;;;;;;;5018390;28;20029;-72
2024/01/08 00:14:40;;;;;;;49.42;32.50;;;;;;;;;;5014597;28;20385;-71
2024/01/08 00:17:06;;;;;;;44.35;29.92;;;;;;;;;;5023774;28;20030;-71
2024/01/08 00:19:32;;;;;;;53.45;31.90;;;;;;;;;;5018978;28;20033;-71
2024/01/08 00:21:59;;;;;;;60.63;31.60;;;;;;;;;;5013805;28;20026;-71
2024/01/08 00:24:25;;;;;;;47.15;29.70;;;;;;;;;;5012878;28;20057;-72
2024/01/08 00:26:52;;;;;;;46.33;30.17;;;;;;;;;;5017268;28;20030;-71
2024/01/08 00:29:18;;;;;;;54.92;29.23;;;;;;;;;;5025671;28;20055;-71
2024/01/08 00:31:44;;;;;;;39.83;27.95;;;;;;;;;;5044095;28;20037;-72
2024/01/08 00:34:10;;;;;;;53.00;29.77;;;;;;;;;;5022431;28;20064;-72
2024/01/08 00:36:37;;;;;;;35.55;25.35;;;;;;;;;;5021289;28;20021;-71
2024/01/08 00:39:03;;;;;;;45.80;28.65;;;;;;;;;;5015956;28;20478;-72
2024/01/08 00:41:30;;;;;;;45.72;27.02;;;;;;;;;;5028955;28;20045;-72
2024/01/08 00:43:56;;;;;;;40.80;25.17;;;;;;;;;;5012130;28;20036;-72
2024/01/08 00:46:22;;;;;;;36.85;26.42;;;;;;;;;;5013201;28;20042;-71
2024/01/08 00:48:48;;;;;;;36.78;25.65;;;;;;;;;;5010852;28;20041;-71
2024/01/08 00:51:14;;;;;;;43.17;27.23;;;;;;;;;;5021243;28;20436;-71
2024/01/08 00:53:41;;;;;;;50.08;28.55;;;;;;;;;;5041963;28;20285;-72
2024/01/08 00:56:08;;;;;;;42.08;26.88;;;;;;;;;;5038749;28;20083;-72
2024/01/08 00:58:35;;;;;;;44.70;28.20;;;;;;;;;;5023326;28;20029;-72
2024/01/08 01:01:02;;;;;;;39.30;26.23;;;;;;;;;;5011975;28;20429;-72
2024/01/08 01:03:28;;;;;;;37.72;24.38;;;;;;;;;;5028521;28;20133;-71
2024/01/08 01:05:56;;;;;;;38.55;25.67;;;;;;;;;;5015844;28;20105;-72
2024/01/08 01:08:22;;;;;;;49.42;29.00;;;;;;;;;;5020170;28;20021;-72
2024/01/08 01:10:48;;;;;;;36.78;24.38;;;;;;;;;;5036031;28;20034;-72
2024/01/08 01:13:15;;;;;;;38.65;21.85;;;;;;;;;;5016918;28;20029;-72
2024/01/08 01:15:42;;;;;;;37.60;21.70;;;;;;;;;;5014184;28;20029;-72
2024/01/08 01:18:08;;;;;;;42.40;23.30;;;;;;;;;;5013329;28;20048;-71
2024/01/08 01:20:34;;;;;;;29.60;20.63;;;;;;;;;;5022567;28;20377;-71
2024/01/08 01:23:01;;;;;;;23.83;17.05;;;;;;;;;;5036180;28;20032;-72
2024/01/08 01:25:27;;;;;;;27.20;15.40;;;;;;;;;;5035040;28;20089;-72
2024/01/08 01:27:53;;;;;;;33.30;15.30;;;;;;;;;;5017736;28;20082;-71
2024/01/08 01:30:19;;;;;;;26.90;15.45;;;;;;;;;;5040806;28;20036;-72
2024/01/08 01:32:45;;;;;;;24.52;15.73;;;;;;;;;;5018077;28;20117;-71
2024/01/08 01:35:11;;;;;;;29.85;18.92;;;;;;;;;;5025749;28;20274;-72
2024/01/08 01:37:38;;;;;;;21.45;15.43;;;;;;;;;;5016726;28;20037;-72
2024/01/08 01:40:04;;;;;;;23.83;16.30;;;;;;;;;;5021444;28;20037;-71
2024/01/08 01:42:31;;;;;;;22.42;15.38;;;;;;;;;;5045049;28;20485;-72
2024/01/08 01:44:58;;;;;;;21.00;15.40;;;;;;;;;;5041177;28;20044;-71
2024/01/08 01:47:24;;;;;;;22.65;14.95;;;;;;;;;;5029869;28;20034;-71
2024/01/08 01:49:51;;;;;;;20.48;13.60;;;;;;;;;;5026139;28;20051;-71
2024/01/08 01:52:17;;;;;;;16.60;14.45;;;;;;;;;;5022354;28;20059;-70
2024/01/08 01:54:44;;;;;;;19.88;12.27;;;;;;;;;;5030261;28;20487;-71
2024/01/08 01:57:10;;;;;;;21.75;13.43;;;;;;;;;;5015653;28;20028;-71
2024/01/08 01:59:36;;;;;;;20.92;13.38;;;;;;;;;;5025479;28;20507;-70
2024/01/08 02:02:04;;;;;;;25.27;13.80;;;;;;;;;;5021698;28;20060;-71
2024/01/08 02:04:30;;;;;;;18.05;14.20;;;;;;;;;;5031283;28;20037;-71
2024/01/08 02:06:56;;;;;;;20.38;14.15;;;;;;;;;;5019204;28;20014;-72
2024/01/08 02:09:23;;;;;;;19.77;14.60;;;;;;;;;;5021416;28;20047;-71
2024/01/08 02:11:49;;;;;;;16.15;12.93;;;;;;;;;;5012448;28;20638;-71
2024/01/08 02:14:16;;;;;;;17.30;12.85;;;;;;;;;;5041345;28;20032;-71
2024/01/08 02:16:42;;;;;;;16.42;11.82;;;;;;;;;;5034202;28;20060;-71
2024/01/08 02:19:09;;;;;;;20.63;13.27;;;;;;;;;;5023378;28;20327;-72
2024/01/08 02:21:35;;;;;;;22.38;13.43;;;;;;;;;;5020914;28;20040;-71
2024/01/08 02:24:01;;;;;;;21.42;13.82;;;;;;;;;;5025179;28;20030;-71
2024/01/08 02:26:28;;;;;;;18.65;12.10;;;;;;;;;;5022486;28;20144;-71
2024/01/08 02:28:54;;;;;;;14.13;11.57;;;;;;;;;;5026819;28;20037;-71
2024/01/08 02:31:20;;;;;;;18.17;12.05;;;;;;;;;;5018601;28;20041;-71
2024/01/08 02:33:47;;;;;;;14.45;11.95;;;;;;;;;;5021463;28;20034;-71
2024/01/08 02:36:13;;;;;;;16.63;11.98;;;;;;;;;;5020170;28;20499;-71
2024/01/08 02:38:39;;;;;;;14.90;11.35;;;;;;;;;;5023138;28;20253;-71
2024/01/08 02:41:05;;;;;;;16.08;13.15;;;;;;;;;;5026489;28;20436;-71
2024/01/08 02:43:32;;;;;;;15.13;11.43;;;;;;;;;;5026303;28;20105;-71
2024/01/08 02:45:58;;;;;;;20.30;11.57;;;;;;;;;;5041839;28;20110;-71
2024/01/08 02:48:25;;;;;;;19.67;12.48;;;;;;;;;;5014582;28;20048;-71
2024/01/08 02:50:51;;;;;;;17.88;11.68;;;;;;;;;;5017129;28;20045;-72
2024/01/08 02:53:17;;;;;;;16.45;11.60;;;;;;;;;;5018865;28;20091;-71
2024/01/08 02:55:43;;;;;;;16.42;11.68;;;;;;;;;;5020958;28;20025;-71
2024/01/08 02:58:12;;;;;;;15.68;11.32;;;;;;;;;;5018659;28;20018;-71
2024/01/08 03:00:38;;;;;;;18.05;13.15;;;;;;;;;;5021253;28;20048;-72
2024/01/08 03:03:05;;;;;;;13.43;11.05;;;;;;;;;;5020935;28;20056;-71
2024/01/08 03:05:31;;;;;;;18.10;12.48;;;;;;;;;;5025624;28;20064;-71
2024/01/08 03:07:57;;;;;;;18.05;12.05;;;;;;;;;;5023498;28;20033;-71
2024/01/08 03:10:23;;;;;;;17.80;11.82;;;;;;;;;;5020105;28;20029;-72
2024/01/08 03:12:49;;;;;;;19.63;12.77;;;;;;;;;;5021416;28;20249;-71
2024/01/08 03:15:16;;;;;;;16.02;10.20;;;;;;;;;;5031886;28;20021;-71
2024/01/08 03:17:42;;;;;;;19.42;12.23;;;;;;;;;;5021844;28;20049;-72
2024/01/08 03:20:08;;;;;;;16.77;9.93;;;;;;;;;;5013968;28;20052;-71
2024/01/08 03:22:35;;;;;;;13.65;9.48;;;;;;;;;;5011493;28;20025;-71
2024/01/08 03:25:01;;;;;;;15.27;8.02;;;;;;;;;;5010576;28;20481;-72
2024/01/08 03:27:27;;;;;;;14.00;9.40;;;;;;;;;;5018086;28;20040;-71
2024/01/08 03:29:53;;;;;;;9.43;8.48;;;;;;;;;;5036842;28;20036;-71
2024/01/08 03:32:20;;;;;;;14.20;9.10;;;;;;;;;;5020389;28;20034;-72
2024/01/08 03:34:46;;;;;;;12.15;8.25;;;;;;;;;;5014292;28;20511;-71
2024/01/08 03:37:12;;;;;;;9.68;7.60;;;;;;;;;;5020265;28;20021;-72
2024/01/08 03:39:38;;;;;;;9.95;7.13;;;;;;;;;;5023510;28;20028;-72
2024/01/08 03:42:05;;;;;;;8.93;6.47;;;;;;;;;;5022583;28;20393;-72
2024/01/08 03:44:31;;;;;;;8.90;6.70;;;;;;;;;;5017592;28;20089;-71
2024/01/08 03:46:57;;;;;;;6.65;5.97;;;;;;;;;;5022239;28;20029;-71
2024/01/08 03:49:24;;;;;;;3.83;2.85;;;;;;;;;;5032795;28;20026;-71
2024/01/08 03:51:50;;;;;;;12.88;7.38;;;;;;;;;;5017634;28;20032;-71
2024/01/08 03:54:17;;;;;;;8.57;7.03;;;;;;;;;;5024602;28;20049;-71
2024/01/08 03:56:44;;;;;;;8.80;7.40;;;;;;;;;;5028247;28;20028;-71
2024/01/08 03:59:13;;;;;;;11.18;7.57;;;;;;;;;;5016533;28;20108;-71
2024/01/08 04:01:46;;;;;;;12.25;9.23;;;;;;;;;;5019933;28;20064;-70
2024/01/08 04:04:12;;;;;;;13.60;8.48;;;;;;;;;;5028668;28;21003;-70
2024/01/08 04:06:39;;;;;;;14.68;9.43;;;;;;;;;;5032753;28;20025;-71
2024/01/08 04:09:05;;;;;;;16.33;9.38;;;;;;;;;;5018007;28;20034;-71
2024/01/08 04:11:31;;;;;;;13.65;9.15;;;;;;;;;;5023022;28;20030;-71
2024/01/08 04:13:58;;;;;;;13.98;9.02;;;;;;;;;;5013777;28;20056;-71
2024/01/08 04:16:24;;;;;;;13.13;7.40;;;;;;;;;;5019020;28;20025;-71
2024/01/08 04:18:50;;;;;;;11.88;8.88;;;;;;;;;;5018669;28;20456;-71
2024/01/08 04:21:17;;;;;;;12.88;7.82;;;;;;;;;;5014069;28;20026;-71
2024/01/08 04:23:43;;;;;;;14.80;7.25;;;;;;;;;;5015694;28;20032;-71
2024/01/08 04:26:15;;;;;;;8.50;7.57;;;;;;;;;;5018171;28;20100;-71
2024/01/08 04:28:42;;;;;;;11.02;7.13;;;;;;;;;;5020063;28;20028;-72
2024/01/08 04:31:08;;;;;;;10.65;7.88;;;;;;;;;;5010295;28;20397;-72
2024/01/08 04:33:34;;;;;;;12.57;9.13;;;;;;;;;;5016962;28;20032;-72
2024/01/08 04:36:03;;;;;;;14.80;8.43;;;;;;;;;;5022692;28;20053;-71
2024/01/08 04:38:29;;;;;;;13.90;8.98;;;;;;;;;;5014239;28;20085;-72
2024/01/08 04:40:55;;;;;;;11.77;9.70;;;;;;;;;;5018222;28;20104;-72
2024/01/08 04:43:22;;;;;;;12.55;9.55;;;;;;;;;;5012890;28;20596;-72
2024/01/08 04:45:48;;;;;;;13.52;9.27;;;;;;;;;;5021566;28;20048;-72
2024/01/08 04:48:14;;;;;;;11.15;7.97;;;;;;;;;;5023321;28;20022;-72
2024/01/08 04:50:41;;;;;;;12.88;8.30;;;;;;;;;;5022868;28;20120;-72
2024/01/08 04:53:08;;;;;;;15.38;9.05;;;;;;;;;;5020645;28;20226;-72
2024/01/08 04:55:34;;;;;;;13.13;8.45;;;;;;;;;;5015093;28;20030;-72
2024/01/08 04:58:00;;;;;;;11.95;7.32;;;;;;;;;;5012441;28;20037;-72
2024/01/08 05:00:26;;;;;;;8.00;7.05;;;;;;;;;;5017547;28;20356;-72
2024/01/08 05:02:53;;;;;;;9.07;6.65;;;;;;;;;;5015771;28;20030;-72
2024/01/08 05:05:19;;;;;;;11.25;6.82;;;;;;;;;;5022065;28;20055;-72
2024/01/08 05:07:45;;;;;;;9.32;6.03;;;;;;;;;;5016260;28;20050;-72
2024/01/08 05:10:11;;;;;;;6.28;5.10;;;;;;;;;;5022911;28;20026;-71
2024/01/08 05:12:37;;;;;;;11.45;6.80;;;;;;;;;;5018950;28;20512;-72
2024/01/08 05:15:04;;;;;;;11.35;6.68;;;;;;;;;;5021529;28;20030;-71
2024/01/08 05:17:31;;;;;;;14.18;7.97;;;;;;;;;;5035535;28;20788;-72
2024/01/08 05:19:57;;;;;;;11.32;6.53;;;;;;;;;;5024414;28;20029;-71
2024/01/08 05:22:23;;;;;;;13.82;7.88;;;;;;;;;;5021557;28;20085;-72
2024/01/08 05:24:49;;;;;;;8.95;7.93;;;;;;;;;;5013294;28;20034;-72
2024/01/08 05:27:15;;;;;;;12.15;7.90;;;;;;;;;;5021153;28;20040;-71
2024/01/08 05:29:42;;;;;;;8.60;6.80;;;;;;;;;;5024019;28;20496;-72
2024/01/08 05:32:08;;;;;;;10.65;7.15;;;;;;;;;;5026618;28;20033;-71
2024/01/08 05:34:34;;;;;;;10.60;7.47;;;;;;;;;;5016627;28;20521;-72
2024/01/08 05:37:00;;;;;;;7.47;6.72;;;;;;;;;;5013901;28;20101;-72
2024/01/08 05:39:26;;;;;;;8.70;6.32;;;;;;;;;;5019783;28;20461;-72
2024/01/08 05:41:53;;;;;;;10.35;8.05;;;;;;;;;;5026291;28;20111;-72
2024/01/08 05:44:19;;;;;;;13.35;7.07;;;;;;;;;;5021174;28;20037;-71
2024/01/08 05:46:45;;;;;;;9.63;6.80;;;;;;;;;;5041218;28;20034;-72
2024/01/08 05:49:13;;;;;;;9.55;5.97;;;;;;;;;;5021073;28;20454;-72
2024/01/08 05:51:39;;;;;;;9.23;6.55;;;;;;;;;;5041486;28;20106;-72
2024/01/08 05:54:06;;;;;;;9.18;6.68;;;;;;;;;;5029421;28;20049;-72
2024/01/08 05:56:33;;;;;;;12.63;7.95;;;;;;;;;;5042085;28;20439;-72
2024/01/08 05:58:59;;;;;;;7.90;6.03;;;;;;;;;;5019724;28;20481;-72
2024/01/08 06:01:26;;;;;;;9.32;7.03;;;;;;;;;;5040653;28;20029;-72
2024/01/08 06:03:52;;;;;;;6.93;5.55;;;;;;;;;;5038590;28;20056;-72
2024/01/08 06:06:18;;;;;;;8.40;6.28;;;;;;;;;;5020849;28;20734;-72
2024/01/08 06:08:44;;;;;;;8.43;5.55;;;;;;;;;;5025882;28;20040;-72
2024/01/08 06:11:10;;;;;;;11.85;6.78;;;;;;;;;;5014525;28;21240;-72
2024/01/08 06:13:37;;;;;;;10.52;6.60;;;;;;;;;;5025499;28;20076;-72
2024/01/08 06:16:03;;;;;;;6.65;4.85;;;;;;;;;;5018264;28;20079;-72
2024/01/08 06:18:33;;;;;;;6.72;4.53;;;;;;;;;;5024530;28;20028;-72
2024/01/08 06:20:59;;;;;;;6.22;4.93;;;;;;;;;;5015658;28;20072;-72
2024/01/08 06:23:25;;;;;;;10.88;4.65;;;;;;;;;;5033363;28;20096;-72
2024/01/08 06:25:52;;;;;;;11.02;6.70;;;;;;;;;;5014416;28;20550;-73
2024/01/08 06:28:18;;;;;;;8.80;4.95;;;;;;;;;;5034925;28;20663;-72
2024/01/08 06:30:44;;;;;;;6.93;4.95;;;;;;;;;;5038490;28;20028;-72
2024/01/08 06:33:10;;;;;;;5.60;4.63;;;;;;;;;;5028101;28;20418;-72
2024/01/08 06:35:36;;;;;;;6.38;5.05;;;;;;;;;;5037902;28;20715;-72
2024/01/08 06:38:02;;;;;;;9.68;5.30;;;;;;;;;;5017622;28;20055;-72
2024/01/08 06:40:28;;;;;;;9.30;4.93;;;;;;;;;;5035864;28;20162;-71
2024/01/08 06:42:55;;;;;;;6.28;4.18;;;;;;;;;;5018175;28;20036;-72
2024/01/08 06:45:21;;;;;;;6.00;4.05;;;;;;;;;;5015150;28;20118;-72
2024/01/08 06:47:47;;;;;;;6.45;4.60;;;;;;;;;;5042015;28;20502;-72
2024/01/08 06:50:13;;;;;;;4.50;3.50;;;;;;;;;;5013731;28;20053;-72
2024/01/08 06:52:39;;;;;;;4.43;4.03;;;;;;;;;;5021901;28;20051;-72
2024/01/08 06:55:06;;;;;;;6.25;3.92;;;;;;;;;;5026388;28;20098;-71
2024/01/08 06:57:32;;;;;;;4.10;3.30;;;;;;;;;;5020686;28;20111;-72
2024/01/08 06:59:58;;;;;;;4.72;4.30;;;;;;;;;;5013465;28;20089;-72
2024/01/08 07:02:24;;;;;;;6.53;4.28;;;;;;;;;;5015447;28;20046;-72
2024/01/08 07:04:52;;;;;;;5.38;2.97;;;;;;;;;;5024427;28;20500;-72
2024/01/08 07:07:18;;;;;;;3.83;3.47;;;;;;;;;;5044738;28;20538;-72
2024/01/08 07:09:44;;;;;;;12.38;4.25;;;;;;;;;;5021800;28;20025;-72
2024/01/08 07:12:10;;;;;;;6.57;3.88;;;;;;;;;;5020366;28;20397;-72
2024/01/08 07:14:45;;;;;;;5.50;4.10;;;;;;;;;;5017783;28;20029;-72
2024/01/08 07:17:11;;;;;;;5.45;3.13;;;;;;;;;;5031739;28;20512;-71
2024/01/08 07:19:37;;;;;;;3.33;3.00;;;;;;;;;;5007844;28;20115;-72
2024/01/08 07:22:04;;;;;;;3.05;2.67;;;;;;;;;;5013495;28;20361;-72
2024/01/08 07:24:30;;;;;;;4.15;3.53;;;;;;;;;;5018746;28;20044;-71
2024/01/08 07:26:57;;;;;;;6.57;3.00;;;;;;;;;;5019087;28;20138;-72
2024/01/08 07:29:23;;;;;;;13.05;3.60;;;;;;;;;;5030170;28;20026;-72
2024/01/08 07:31:53;;;;;;;2.58;2.35;;;;;;;;;;5004365;28;20096;-72
2024/01/08 07:34:19;;;;;;;6.10;2.63;;;;;;;;;;5040780;28;20120;-72
2024/01/08 07:36:46;;;;;;;6.38;3.25;;;;;;;;;;5023914;28;20026;-72
2024/01/08 07:39:15;;;;;;;6.40;2.47;;;;;;;;;;5014549;28;20029;-71
2024/01/08 07:41:43;;;;;;;3.75;3.08;;;;;;;;;;5034173;28;20076;-72
2024/01/08 07:44:09;;;;;;;4.25;2.45;;;;;;;;;;5019743;28;20052;-72
2024/01/08 07:46:35;;;;;;;3.50;2.75;;;;;;;;;;5018079;28;20088;-72
2024/01/08 07:49:01;;;;;;;2.33;1.85;;;;;;;;;;5018801;28;20473;-72
2024/01/08 07:51:28;;;;;;;2.53;2.13;;;;;;;;;;5020686;28;20108;-72
2024/01/08 07:53:54;;;;;;;2.38;2.00;;;;;;;;;;5035026;28;20124;-71
2024/01/08 07:56:26;;;;;;;2.78;2.58;;;;;;;;;;5019388;28;20144;-71
2024/01/08 07:58:53;;;;;;;1.90;1.80;;;;;;;;;;5018714;28;20048;-71
2024/01/08 08:01:19;;;;;;;1.92;1.70;;;;;;;;;;5040091;28;20113;-72
2024/01/08 08:03:45;;;;;;;2.00;1.90;;;;;;;;;;5016310;28;20489;-72
2024/01/08 08:06:12;;;;;;;1.98;1.88;;;;;;;;;;5017320;28;20041;-72
2024/01/08 08:08:39;;;;;;;4.68;1.75;;;;;;;;;;5028743;28;21571;-72
2024/01/08 08:11:06;;;;;;;2.40;2.20;;;;;;;;;;5023135;28;20549;-71
2024/01/08 08:13:32;;;;;;;2.15;1.90;;;;;;;;;;5026426;28;20424;-71
2024/01/08 08:15:59;;;;;;;3.97;2.35;;;;;;;;;;5019774;28;20029;-72
2024/01/08 08:18:25;;;;;;;4.45;2.70;;;;;;;;;;5037995;28;20036;-72
2024/01/08 08:20:51;;;;;;;3.00;2.38;;;;;;;;;;5029455;28;20033;-72
2024/01/08 08:23:18;;;;;;;2.78;2.45;;;;;;;;;;5010837;28;20029;-72
2024/01/08 08:25:44;;;;;;;3.22;1.88;;;;;;;;;;5016759;28;20029;-72
2024/01/08 08:28:10;;;;;;;1.70;1.60;;;;;;;;;;5012150;28;20025;-72
2024/01/08 08:30:36;;;;;;;4.82;1.77;;;;;;;;;;5012343;28;20079;-71
2024/01/08 08:33:02;;;;;;;1.40;1.40;;;;;;;;;;5029069;28;20379;-72
2024/01/08 08:35:29;;;;;;;3.35;1.70;;;;;;;;;;5024336;28;20030;-71
2024/01/08 08:37:58;;;;;;;1.60;1.50;;;;;;;;;;5010564;28;20659;-71
2024/01/08 08:40:24;;;;;;;1.73;1.63;;;;;;;;;;5035943;28;20083;-71
2024/01/08 08:42:50;;;;;;;6.45;1.98;;;;;;;;;;5023225;28;20103;-71
2024/01/08 08:45:17;;;;;;;1.80;1.70;;;;;;;;;;5022105;28;20485;-72
2024/01/08 08:47:44;;;;;;;2.63;2.10;;;;;;;;;;5018139;28;20044;-71
2024/01/08 08:50:12;;;;;;;1.88;1.77;;;;;;;;;;5032514;28;20145;-71
2024/01/08 08:52:39;;;;;;;3.63;2.15;;;;;;;;;;5014015;28;20053;-71
2024/01/08 08:55:05;;;;;;;2.97;2.20;;;;;;;;;;5014572;28;20233;-72
2024/01/08 08:57:31;;;;;;;2.83;1.92;;;;;;;;;;5027290;28;20026;-72
2024/01/08 08:59:58;;;;;;;2.60;2.20;;;;;;;;;;5009179;28;20026;-71
2024/01/08 09:02:24;;;;;;;2.03;1.80;;;;;;;;;;5035825;28;20039;-71
2024/01/08 09:04:50;;;;;;;2.53;2.28;;;;;;;;;;5019199;28;20029;-72
2024/01/08 09:07:21;;;;;;;2.92;2.60;;;;;;;;;;5012975;28;20280;-71
2024/01/08 09:09:48;;;;;;;1.83;1.73;;;;;;;;;;5016645;28;20033;-72
2024/01/08 09:12:14;;;;;;;2.38;1.60;;;;;;;;;;5013342;28;20503;-71
2024/01/08 09:14:41;;;;;;;2.42;1.80;;;;;;;;;;5011147;28;20025;-71
2024/01/08 09:17:07;;;;;;;4.30;1.98;;;;;;;;;;5020567;28;20022;-71
2024/01/08 09:19:35;;;;;;;4.65;2.17;;;;;;;;;;5020300;28;20026;-71
2024/01/08 09:22:01;;;;;;;2.60;2.20;;;;;;;;;;5013040;28;20505;-71
2024/01/08 09:24:27;;;;;;;2.05;1.95;;;;;;;;;;5033034;28;20033;-72
2024/01/08 09:26:53;;;;;;;1.92;1.83;;;;;;;;;;5009197;28;20469;-70
2024/01/08 09:29:20;;;;;;;5.32;2.20;;;;;;;;;;5032054;28;20482;-71
2024/01/08 09:31:46;;;;;;;2.10;2.00;;;;;;;;;;5014977;28;20044;-71
2024/01/08 09:34:12;;;;;;;2.17;1.98;;;;;;;;;;5017121;28;20026;-72
2024/01/08 09:36:39;;;;;;;3.88;1.75;;;;;;;;;;5008649;28;20515;-71
2024/01/08 09:39:05;;;;;;;4.28;1.98;;;;;;;;;;5010647;28;20026;-72
2024/01/08 09:41:32;;;;;;;4.07;2.20;;;;;;;;;;5015995;28;20113;-72
2024/01/08 09:44:02;;;;;;;2.97;2.03;;;;;;;;;;5006033;28;20290;-71
2024/01/08 09:46:30;;;;;;;3.60;2.75;;;;;;;;;;5010637;28;20488;-71
2024/01/08 09:48:57;;;;;;;2.03;1.77;;;;;;;;;;5032851;28;20036;-71
2024/01/08 09:51:23;;;;;;;9.07;2.50;;;;;;;;;;5018817;28;20056;-71
2024/01/08 09:53:52;;;;;;;2.15;1.92;;;;;;;;;;5014754;28;20477;-71
2024/01/08 09:56:20;;;;;;;7.13;2.10;;;;;;;;;;5019933;28;20111;-71
2024/01/08 09:58:46;;;;;;;5.28;2.45;;;;;;;;;;5035562;28;20026;-71
2024/01/08 10:01:12;;;;;;;2.33;2.13;;;;;;;;;;5012593;28;20478;-71
2024/01/08 10:03:39;;;;;;;7.38;2.65;;;;;;;;;;5020297;28;20037;-71
2024/01/08 10:06:09;;;;;;;2.92;2.30;;;;;;;;;;5014138;28;20144;-71
2024/01/08 10:08:35;;;;;;;3.78;2.40;;;;;;;;;;5020747;28;20037;-71
2024/01/08 10:11:03;;;;;;;6.25;2.67;;;;;;;;;;5019690;28;20409;-71
2024/01/08 10:13:29;;;;;;;3.95;3.00;;;;;;;;;;5009888;28;20041;-71
2024/01/08 10:15:55;;;;;;;5.38;2.60;;;;;;;;;;5015408;28;20037;-71
2024/01/08 10:18:23;;;;;;;4.18;3.08;;;;;;;;;;5018244;28;20545;-71
2024/01/08 10:20:49;;;;;;;2.80;2.13;;;;;;;;;;5022563;28;20116;-71
2024/01/08 10:23:16;;;;;;;10.23;3.80;;;;;;;;;;5022420;28;20092;-71
2024/01/08 10:25:49;;;;;;;4.85;2.45;;;;;;;;;;5035638;28;20446;-71
2024/01/08 10:28:17;;;;;;;1.95;1.85;;;;;;;;;;5020565;28;20061;-71
2024/01/08 10:30:43;;;;;;;2.03;1.92;;;;;;;;;;5036938;28;20030;-71
2024/01/08 10:33:09;;;;;;;1.92;1.80;;;;;;;;;;5015152;28;20033;-71
2024/01/08 10:35:36;;;;;;;5.03;2.30;;;;;;;;;;5015685;28;20239;-71
2024/01/08 10:38:04;;;;;;;2.67;2.40;;;;;;;;;;5012139;28;20029;-70
2024/01/08 10:40:30;;;;;;;2.42;1.90;;;;;;;;;;5019937;28;20117;-71
2024/01/08 10:42:56;;;;;;;6.20;3.22;;;;;;;;;;5017483;28;20029;-71
2024/01/08 10:45:23;;;;;;;5.93;2.30;;;;;;;;;;5021263;28;20285;-71
2024/01/08 10:47:58;;;;;;;2.25;2.10;;;;;;;;;;5024995;28;20064;-71
2024/01/08 10:50:25;;;;;;;14.95;2.72;;;;;;;;;;5021602;28;20061;-71
2024/01/08 10:52:56;;;;;;;7.15;3.58;;;;;;;;;;5026340;28;20061;-71
2024/01/08 10:55:25;;;;;;;3.72;2.97;;;;;;;;;;5030046;28;20028;-71
2024/01/08 10:57:52;;;;;;;3.50;2.42;;;;;;;;;;5023181;28;20511;-70
2024/01/08 11:00:18;;;;;;;4.00;2.03;;;;;;;;;;5023725;28;20057;-70
2024/01/08 11:02:45;;;;;;;3.42;2.80;;;;;;;;;;5017418;28;20032;-70
2024/01/08 11:05:13;;;;;;;2.95;2.67;;;;;;;;;;5005220;28;20460;-71
2024/01/08 11:07:41;;;;;;;2.00;1.90;;;;;;;;;;5030330;28;20029;-71
2024/01/08 11:10:09;;;;;;;3.55;2.40;;;;;;;;;;5026951;28;20398;-71
2024/01/08 11:12:55;;;;;;;3.03;2.78;;;;;;;;;;5022359;28;20025;-71
2024/01/08 11:15:25;;;;;;;2.30;2.10;;;;;;;;;;5017760;28;20056;-71
2024/01/08 11:17:52;;;;;;;3.10;2.00;;;;;;;;;;5017494;28;20061;-71
2024/01/08 11:20:37;;;;;;;2.25;2.05;;;;;;;;;;5019139;28;20108;-71
2024/01/08 11:23:04;;;;;;;2.17;1.98;;;;;;;;;;5020041;28;20038;-71
2024/01/08 11:25:30;;;;;;;2.08;1.92;;;;;;;;;;5024204;28;20029;-71
2024/01/08 11:27:59;;;;;;;3.78;1.92;;;;;;;;;;5022983;28;20044;-71
2024/01/08 11:30:25;;;;;;;2.30;2.13;;;;;;;;;;5009814;28;20100;-71
2024/01/08 11:32:54;;;;;;;2.40;2.03;;;;;;;;;;5011908;28;20486;-71
2024/01/08 11:35:21;;;;;;;2.28;2.00;;;;;;;;;;5018665;28;20473;-71
2024/01/08 11:37:57;;;;;;;2.85;1.83;;;;;;;;;;5012165;28;20563;-71
2024/01/08 11:40:23;;;;;;;2.35;2.03;;;;;;;;;;5021181;28;20031;-70
2024/01/08 11:42:50;;;;;;;4.45;1.98;;;;;;;;;;5017201;28;20040;-70
2024/01/08 11:45:16;;;;;;;6.85;2.38;;;;;;;;;;5016469;28;20385;-70
2024/01/08 11:47:43;;;;;;;2.85;2.10;;;;;;;;;;5012517;28;20437;-71
2024/01/08 11:50:10;;;;;;;4.78;2.88;;;;;;;;;;5020957;28;20057;-71
2024/01/08 11:52:37;;;;;;;3.03;2.53;;;;;;;;;;5023820;28;20144;-71
2024/01/08 11:55:05;;;;;;;2.95;2.45;;;;;;;;;;5033735;28;20034;-71
2024/01/08 11:57:31;;;;;;;1.95;1.85;;;;;;;;;;5032597;28;20014;-70
2024/01/08 11:59:58;;;;;;;3.47;2.45;;;;;;;;;;5021747;28;20030;-70
2024/01/08 12:02:27;;;;;;;4.28;2.50;;;;;;;;;;5013136;28;20037;-70
2024/01/08 12:05:03;;;;;;;3.17;2.05;;;;;;;;;;5016166;28;20378;-70
2024/01/08 12:07:31;;;;;;;3.03;2.22;;;;;;;;;;5014842;28;20037;-71
2024/01/08 12:09:58;;;;;;;3.42;2.30;;;;;;;;;;5034250;28;20030;-71
2024/01/08 12:12:24;;;;;;;2.85;2.25;;;;;;;;;;5022477;28;20355;-71
2024/01/08 12:14:51;;;;;;;3.55;2.42;;;;;;;;;;5013833;28;20017;-70
2024/01/08 12:17:21;;;;;;;3.33;3.03;;;;;;;;;;5033347;28;20052;-70
2024/01/08 12:19:49;;;;;;;5.63;3.00;;;;;;;;;;5016808;28;20083;-71
2024/01/08 12:22:16;;;;;;;4.53;2.45;;;;;;;;;;5010898;28;20045;-70
2024/01/08 12:24:45;;;;;;;9.90;3.15;;;;;;;;;;5011834;28;20531;-71
2024/01/08 12:27:12;;;;;;;10.98;3.20;;;;;;;;;;5024571;28;20032;-70
2024/01/08 12:29:42;;;;;;;6.68;3.95;;;;;;;;;;5006843;28;20054;-70
2024/01/08 12:32:17;;;;;;;4.53;3.15;;;;;;;;;;5018840;28;20029;-71
2024/01/08 12:34:43;;;;;;;5.95;4.57;;;;;;;;;;5009779;28;20036;-70
2024/01/08 12:37:10;;;;;;;1.80;1.70;;;;;;;;;;5010628;28;20415;-70
2024/01/08 12:39:36;;;;;;;3.20;2.47;;;;;;;;;;5024051;28;20509;-71
2024/01/08 12:42:08;;;;;;;4.03;2.38;;;;;;;;;;5021244;28;20148;-70
2024/01/08 12:44:36;;;;;;;4.03;3.25;;;;;;;;;;5013789;28;21421;-70
2024/01/08 12:47:04;;;;;;;4.60;3.53;;;;;;;;;;5015887;28;20025;-70
2024/01/08 12:49:33;;;;;;;4.45;3.28;;;;;;;;;;5016634;28;20033;-71
2024/01/08 12:52:02;;;;;;;4.88;3.60;;;;;;;;;;5014451;28;20106;-70
2024/01/08 12:54:29;;;;;;;6.63;3.58;;;;;;;;;;5014794;28;20076;-70
2024/01/08 12:56:55;;;;;;;11.25;6.35;;;;;;;;;;5015705;28;20075;-70
2024/01/08 12:59:29;;;;;;;6.68;4.53;;;;;;;;;;5013016;28;20481;-71
2024/01/08 13:01:56;;;;;;;5.43;3.75;;;;;;;;;;5031316;28;20061;-70
2024/01/08 13:04:22;;;;;;;3.95;2.70;;;;;;;;;;5011083;28;20053;-70
2024/01/08 13:06:49;;;;;;;5.95;4.55;;;;;;;;;;5015742;28;20543;-70
2024/01/08 13:09:16;;;;;;;7.53;4.20;;;;;;;;;;5010949;28;20040;-70
2024/01/08 13:11:42;;;;;;;3.30;2.80;;;;;;;;;;5013141;28;20480;-70
2024/01/08 13:14:13;;;;;;;3.00;2.72;;;;;;;;;;5010911;28;20026;-70
2024/01/08 13:16:43;;;;;;;4.32;2.67;;;;;;;;;;5020212;28;20034;-70
2024/01/08 13:19:10;;;;;;;6.10;3.83;;;;;;;;;;5013590;28;20041;-71
2024/01/08 13:21:40;;;;;;;5.07;2.92;;;;;;;;;;5018290;28;20069;-72
2024/01/08 13:24:10;;;;;;;3.60;2.88;;;;;;;;;;5014419;28;20014;-71
2024/01/08 13:26:39;;;;;;;2.70;2.50;;;;;;;;;;5022783;28;20124;-72
2024/01/08 13:29:06;;;;;;;4.10;2.88;;;;;;;;;;5025667;28;20034;-72
2024/01/08 13:31:36;;;;;;;3.97;2.35;;;;;;;;;;5023923;28;20022;-73
2024/01/08 13:34:06;;;;;;;2.72;2.30;;;;;;;;;;5044955;28;20022;-73
2024/01/08 13:36:38;;;;;;;4.35;2.63;;;;;;;;;;5028249;28;20022;-72
2024/01/08 13:39:08;;;;;;;3.47;2.80;;;;;;;;;;5023999;28;20576;-71
2024/01/08 13:41:37;;;;;;;7.38;2.45;;;;;;;;;;5031084;28;20521;-74
2024/01/08 13:44:04;;;;;;;6.07;2.75;;;;;;;;;;5026575;28;20041;-72
2024/01/08 13:46:30;;;;;;;4.40;2.47;;;;;;;;;;5045406;28;20036;-73
2024/01/08 13:48:57;;;;;;;6.35;3.33;;;;;;;;;;5029514;28;20018;-72
2024/01/08 13:51:23;;;;;;;4.28;2.80;;;;;;;;;;5019808;28;20795;-71
2024/01/08 13:53:50;;;;;;;3.42;2.30;;;;;;;;;;5022417;28;20033;-71
2024/01/08 13:56:17;;;;;;;3.80;2.60;;;;;;;;;;5022443;28;20148;-72
2024/01/08 13:58:43;;;;;;;4.22;2.85;;;;;;;;;;5028134;28;20020;-72
2024/01/08 14:01:09;;;;;;;2.30;1.80;;;;;;;;;;5029810;28;20025;-72
2024/01/08 14:03:36;;;;;;;2.40;2.10;;;;;;;;;;5035406;28;20642;-72
2024/01/08 14:06:02;;;;;;;5.57;2.25;;;;;;;;;;5014960;28;20043;-72
2024/01/08 14:08:28;;;;;;;2.63;2.00;;;;;;;;;;5020136;28;20034;-71
2024/01/08 14:10:55;;;;;;;2.25;1.85;;;;;;;;;;5027675;28;20516;-72
2024/01/08 14:13:21;;;;;;;4.72;2.42;;;;;;;;;;5024826;28;20025;-70
2024/01/08 14:15:47;;;;;;;3.05;2.42;;;;;;;;;;5015491;28;20490;-71
2024/01/08 14:18:13;;;;;;;2.35;2.15;;;;;;;;;;5024583;28;20029;-71
2024/01/08 14:20:39;;;;;;;2.78;2.05;;;;;;;;;;5032142;28;20022;-70
2024/01/08 14:23:07;;;;;;;2.13;2.00;;;;;;;;;;5022341;28;20146;-70
2024/01/08 14:25:34;;;;;;;5.75;2.15;;;;;;;;;;5020252;28;20733;-70
2024/01/08 14:28:00;;;;;;;4.18;2.00;;;;;;;;;;5025125;28;20533;-70
2024/01/08 14:30:26;;;;;;;2.00;1.80;;;;;;;;;;5024306;28;20037;-71
2024/01/08 14:32:53;;;;;;;2.45;2.25;;;;;;;;;;5043752;28;20481;-71